sensor_id;sensor_type;location;lat;lon;timestamp;P1;durP1;ratioP1;P2;durP2;ratioP2
51491;SDS011;37569;50.548;8.778;2023-07-02T00:03:10;4.2;;;3.8;;
51491;SDS011;37569;50.548;8.778;2023-07-02T00:08:11;4.9;;;3.9;;
51491;SDS011;37569;50.548;8.778;2023-07-02T00:13:12;5.6;;;4;;
51491;SDS011;37569;50.548;8.778;2023-07-02T00:18:12;5.7;;;4.5;;
51491;SDS011;37569;50.548;8.778;2023-07-02T00:23:13;4.8;;;4.4;;
51491;SDS011;37569;50.548;8.778;2023-07-02T00:28:14;5.6;;;4.6;;
51491;SDS011;37569;50.548;8.778;2023-07-02T00:33:15;8.6;;;5.1;;
51491;SDS011;37569;50.548;8.778;2023-07-02T00:38:15;5.4;;;4.9;;
51491;SDS011;37569;50.548;8.778;2023-07-02T00:43:16;6.2;;;5;;
51491;SDS011;37569;50.548;8.778;2023-07-02T00:48:17;7.6;;;5.2;;
51491;SDS011;37569;50.548;8.778;2023-07-02T00:53:17;7.5;;;5;;
51491;SDS011;37569;50.548;8.778;2023-07-02T00:58:18;6.8;;;5.4;;
51491;SDS011;37569;50.548;8.778;2023-07-02T01:03:19;8.3;;;5.4;;
51491;SDS011;37569;50.548;8.778;2023-07-02T01:08:20;9.9;;;5.4;;
51491;SDS011;37569;50.548;8.778;2023-07-02T01:13:21;9.1;;;5;;
51491;SDS011;37569;50.548;8.778;2023-07-02T01:18:21;7.5;;;5;;
51491;SDS011;37569;50.548;8.778;2023-07-02T01:23:22;7.3;;;5;;
51491;SDS011;37569;50.548;8.778;2023-07-02T01:28:22;11.3;;;5.4;;
51491;SDS011;37569;50.548;8.778;2023-07-02T01:33:23;6.9;;;5.1;;
51491;SDS011;37569;50.548;8.778;2023-07-02T01:38:24;6.3;;;4.6;;
51491;SDS011;37569;50.548;8.778;2023-07-02T01:43:24;6.9;;;5.1;;
51491;SDS011;37569;50.548;8.778;2023-07-02T01:48:25;7.5;;;4.4;;
51491;SDS011;37569;50.548;8.778;2023-07-02T01:53:26;6.6;;;4.7;;
51491;SDS011;37569;50.548;8.778;2023-07-02T01:58:26;7.9;;;4.7;;
51491;SDS011;37569;50.548;8.778;2023-07-02T02:03:27;7;;;4.6;;
51491;SDS011;37569;50.548;8.778;2023-07-02T02:08:28;7.9;;;4.5;;
51491;SDS011;37569;50.548;8.778;2023-07-02T02:13:28;7.3;;;4.3;;
51491;SDS011;37569;50.548;8.778;2023-07-02T02:18:29;5.8;;;4.6;;
51491;SDS011;37569;50.548;8.778;2023-07-02T02:23:30;4.9;;;4.3;;
51491;SDS011;37569;50.548;8.778;2023-07-02T02:28:30;5.8;;;4.4;;
51491;SDS011;37569;50.548;8.778;2023-07-02T02:33:31;5.6;;;4.2;;
51491;SDS011;37569;50.548;8.778;2023-07-02T02:38:32;5.5;;;4.2;;
51491;SDS011;37569;50.548;8.778;2023-07-02T02:43:32;7.1;;;4.7;;
51491;SDS011;37569;50.548;8.778;2023-07-02T02:48:33;8.3;;;4.4;;
51491;SDS011;37569;50.548;8.778;2023-07-02T02:53:34;5.7;;;4;;
51491;SDS011;37569;50.548;8.778;2023-07-02T02:58:34;6.5;;;3.9;;
51491;SDS011;37569;50.548;8.778;2023-07-02T03:03:35;5.7;;;4.1;;
51491;SDS011;37569;50.548;8.778;2023-07-02T03:08:36;7.8;;;4.5;;
51491;SDS011;37569;50.548;8.778;2023-07-02T03:13:36;5.2;;;4.3;;
51491;SDS011;37569;50.548;8.778;2023-07-02T03:18:37;5.2;;;4.3;;
51491;SDS011;37569;50.548;8.778;2023-07-02T03:23:38;5.1;;;4.6;;
51491;SDS011;37569;50.548;8.778;2023-07-02T03:28:38;6.2;;;4.6;;
51491;SDS011;37569;50.548;8.778;2023-07-02T03:33:39;8.2;;;4.4;;
51491;SDS011;37569;50.548;8.778;2023-07-02T03:38:40;5.5;;;4.4;;
51491;SDS011;37569;50.548;8.778;2023-07-02T03:43:40;7.4;;;4.6;;
51491;SDS011;37569;50.548;8.778;2023-07-02T03:48:41;8.4;;;4.6;;
51491;SDS011;37569;50.548;8.778;2023-07-02T03:53:41;6.3;;;4.4;;
51491;SDS011;37569;50.548;8.778;2023-07-02T03:58:42;7.3;;;4.5;;
51491;SDS011;37569;50.548;8.778;2023-07-02T04:03:47;5.7;;;4.7;;
51491;SDS011;37569;50.548;8.778;2023-07-02T04:08:43;7.1;;;4.6;;
51491;SDS011;37569;50.548;8.778;2023-07-02T04:13:44;5.9;;;4.2;;
51491;SDS011;37569;50.548;8.778;2023-07-02T04:18:45;5.2;;;3.8;;
51491;SDS011;37569;50.548;8.778;2023-07-02T04:23:45;5.7;;;3.6;;
51491;SDS011;37569;50.548;8.778;2023-07-02T04:28:46;7.3;;;3.7;;
51491;SDS011;37569;50.548;8.778;2023-07-02T04:33:46;7.9;;;3.8;;
51491;SDS011;37569;50.548;8.778;2023-07-02T04:38:47;7.3;;;4.1;;
51491;SDS011;37569;50.548;8.778;2023-07-02T04:43:48;8.8;;;4;;
51491;SDS011;37569;50.548;8.778;2023-07-02T04:48:48;6.3;;;4;;
51491;SDS011;37569;50.548;8.778;2023-07-02T04:53:49;9.1;;;4.3;;
51491;SDS011;37569;50.548;8.778;2023-07-02T04:58:50;9.7;;;4.5;;
51491;SDS011;37569;50.548;8.778;2023-07-02T05:03:50;9.5;;;4.8;;
51491;SDS011;37569;50.548;8.778;2023-07-02T05:08:51;8.1;;;4.6;;
51491;SDS011;37569;50.548;8.778;2023-07-02T05:13:52;11.3;;;4.9;;
51491;SDS011;37569;50.548;8.778;2023-07-02T05:18:53;11.4;;;4.9;;
51491;SDS011;37569;50.548;8.778;2023-07-02T05:23:53;9.3;;;5.5;;
51491;SDS011;37569;50.548;8.778;2023-07-02T05:28:54;8.1;;;5.1;;
51491;SDS011;37569;50.548;8.778;2023-07-02T05:33:54;8.7;;;5.7;;
51491;SDS011;37569;50.548;8.778;2023-07-02T05:38:55;9.5;;;5.7;;
51491;SDS011;37569;50.548;8.778;2023-07-02T05:43:56;10.5;;;5.4;;
51491;SDS011;37569;50.548;8.778;2023-07-02T05:48:56;11.3;;;6.2;;
51491;SDS011;37569;50.548;8.778;2023-07-02T05:53:57;10.5;;;6.6;;
51491;SDS011;37569;50.548;8.778;2023-07-02T05:58:58;11;;;6.7;;
51491;SDS011;37569;50.548;8.778;2023-07-02T06:03:58;9.9;;;6.7;;
51491;SDS011;37569;50.548;8.778;2023-07-02T06:08:59;12.3;;;7;;
51491;SDS011;37569;50.548;8.778;2023-07-02T06:14:00;15.7;;;7.6;;
51491;SDS011;37569;50.548;8.778;2023-07-02T06:19:01;12.9;;;8.1;;
51491;SDS011;37569;50.548;8.778;2023-07-02T06:24:01;15.1;;;8.4;;
51491;SDS011;37569;50.548;8.778;2023-07-02T06:29:02;12.5;;;8.1;;
51491;SDS011;37569;50.548;8.778;2023-07-02T06:34:02;13.3;;;8.9;;
51491;SDS011;37569;50.548;8.778;2023-07-02T06:39:03;14.5;;;9.5;;
51491;SDS011;37569;50.548;8.778;2023-07-02T06:44:04;17.3;;;9.4;;
51491;SDS011;37569;50.548;8.778;2023-07-02T06:49:05;16.5;;;9.7;;
51491;SDS011;37569;50.548;8.778;2023-07-02T06:54:06;15.3;;;9.7;;
51491;SDS011;37569;50.548;8.778;2023-07-02T06:59:06;17.2;;;11.1;;
51491;SDS011;37569;50.548;8.778;2023-07-02T07:04:07;20.4;;;10.9;;
51491;SDS011;37569;50.548;8.778;2023-07-02T07:09:07;16.9;;;10.6;;
51491;SDS011;37569;50.548;8.778;2023-07-02T07:14:08;17.2;;;10.6;;
51491;SDS011;37569;50.548;8.778;2023-07-02T07:19:09;19;;;11.4;;
51491;SDS011;37569;50.548;8.778;2023-07-02T07:24:10;19.9;;;11.4;;
51491;SDS011;37569;50.548;8.778;2023-07-02T07:29:10;18.9;;;11.1;;
51491;SDS011;37569;50.548;8.778;2023-07-02T07:34:11;18.3;;;11.3;;
51491;SDS011;37569;50.548;8.778;2023-07-02T07:39:12;19;;;11.8;;
51491;SDS011;37569;50.548;8.778;2023-07-02T07:44:12;20;;;12.3;;
51491;SDS011;37569;50.548;8.778;2023-07-02T07:49:13;19.8;;;12.4;;
51491;SDS011;37569;50.548;8.778;2023-07-02T07:54:14;20.1;;;12.4;;
51491;SDS011;37569;50.548;8.778;2023-07-02T07:59:15;17.5;;;12;;
51491;SDS011;37569;50.548;8.778;2023-07-02T08:04:16;20.1;;;12.9;;
51491;SDS011;37569;50.548;8.778;2023-07-02T08:09:16;19.8;;;12.3;;
51491;SDS011;37569;50.548;8.778;2023-07-02T08:14:17;20.8;;;13.1;;
51491;SDS011;37569;50.548;8.778;2023-07-02T08:19:18;19.6;;;12.6;;
51491;SDS011;37569;50.548;8.778;2023-07-02T08:24:19;19.6;;;12.3;;
51491;SDS011;37569;50.548;8.778;2023-07-02T08:29:20;19.2;;;12.8;;
51491;SDS011;37569;50.548;8.778;2023-07-02T08:34:20;19.3;;;12.7;;
51491;SDS011;37569;50.548;8.778;2023-07-02T08:39:21;18.4;;;12.2;;
51491;SDS011;37569;50.548;8.778;2023-07-02T08:44:22;19.6;;;12.6;;
51491;SDS011;37569;50.548;8.778;2023-07-02T08:49:23;19.1;;;12.5;;
51491;SDS011;37569;50.548;8.778;2023-07-02T08:54:24;19.5;;;12.5;;
51491;SDS011;37569;50.548;8.778;2023-07-02T08:59:25;18.5;;;12.6;;
51491;SDS011;37569;50.548;8.778;2023-07-02T09:04:26;18.8;;;11.7;;
51491;SDS011;37569;50.548;8.778;2023-07-02T09:09:27;18.5;;;11.9;;
51491;SDS011;37569;50.548;8.778;2023-07-02T09:14:28;20.3;;;12;;
51491;SDS011;37569;50.548;8.778;2023-07-02T09:19:29;19;;;12.7;;
51491;SDS011;37569;50.548;8.778;2023-07-02T09:24:30;18.8;;;13.1;;
51491;SDS011;37569;50.548;8.778;2023-07-02T09:29:31;19.9;;;12.4;;
51491;SDS011;37569;50.548;8.778;2023-07-02T09:34:32;16.9;;;12.4;;
51491;SDS011;37569;50.548;8.778;2023-07-02T09:39:33;17.4;;;11.6;;
51491;SDS011;37569;50.548;8.778;2023-07-02T09:44:34;15.4;;;11.1;;
51491;SDS011;37569;50.548;8.778;2023-07-02T09:49:36;15.8;;;11.1;;
51491;SDS011;37569;50.548;8.778;2023-07-02T09:54:36;16.9;;;10.6;;
51491;SDS011;37569;50.548;8.778;2023-07-02T09:59:37;17.8;;;11;;
51491;SDS011;37569;50.548;8.778;2023-07-02T10:04:39;15.7;;;10.9;;
51491;SDS011;37569;50.548;8.778;2023-07-02T10:09:40;14.6;;;10.7;;
51491;SDS011;37569;50.548;8.778;2023-07-02T10:14:40;15.9;;;11.3;;
51491;SDS011;37569;50.548;8.778;2023-07-02T10:19:49;15.7;;;11.4;;
51491;SDS011;37569;50.548;8.778;2023-07-02T10:24:49;15.9;;;10.7;;
51491;SDS011;37569;50.548;8.778;2023-07-02T10:29:48;14.6;;;10.5;;
51491;SDS011;37569;50.548;8.778;2023-07-02T10:34:44;16;;;10.9;;
51491;SDS011;37569;50.548;8.778;2023-07-02T10:39:45;13.8;;;10.5;;
51491;SDS011;37569;50.548;8.778;2023-07-02T10:44:46;15.6;;;10.9;;
51491;SDS011;37569;50.548;8.778;2023-07-02T10:49:47;14.6;;;10.6;;
51491;SDS011;37569;50.548;8.778;2023-07-02T10:54:48;15.4;;;10.6;;
51491;SDS011;37569;50.548;8.778;2023-07-02T10:59:49;14.4;;;11.2;;
51491;SDS011;37569;50.548;8.778;2023-07-02T11:04:50;14.7;;;10.8;;
51491;SDS011;37569;50.548;8.778;2023-07-02T11:09:51;14.2;;;10.6;;
51491;SDS011;37569;50.548;8.778;2023-07-02T11:14:52;15.9;;;9.9;;
51491;SDS011;37569;50.548;8.778;2023-07-02T11:19:53;13.8;;;10;;
51491;SDS011;37569;50.548;8.778;2023-07-02T11:24:54;12.9;;;9.4;;
51491;SDS011;37569;50.548;8.778;2023-07-02T11:29:58;15.1;;;10.3;;
51491;SDS011;37569;50.548;8.778;2023-07-02T11:34:56;15.4;;;10.5;;
51491;SDS011;37569;50.548;8.778;2023-07-02T11:39:57;13.8;;;10.3;;
51491;SDS011;37569;50.548;8.778;2023-07-02T11:44:58;14.4;;;10.3;;
51491;SDS011;37569;50.548;8.778;2023-07-02T11:50:00;13.7;;;10.3;;
51491;SDS011;37569;50.548;8.778;2023-07-02T11:55:01;15.2;;;10.8;;
51491;SDS011;37569;50.548;8.778;2023-07-02T12:00:02;16.7;;;10.8;;
51491;SDS011;37569;50.548;8.778;2023-07-02T12:05:03;12.7;;;9.7;;
51491;SDS011;37569;50.548;8.778;2023-07-02T12:10:04;14.8;;;11;;
51491;SDS011;37569;50.548;8.778;2023-07-02T12:15:05;14.4;;;9.8;;
51491;SDS011;37569;50.548;8.778;2023-07-02T12:20:06;15.1;;;10;;
51491;SDS011;37569;50.548;8.778;2023-07-02T12:25:07;16;;;11;;
51491;SDS011;37569;50.548;8.778;2023-07-02T12:30:08;16;;;10.5;;
51491;SDS011;37569;50.548;8.778;2023-07-02T12:35:09;15.4;;;10.2;;
51491;SDS011;37569;50.548;8.778;2023-07-02T12:40:11;12.8;;;10.1;;
51491;SDS011;37569;50.548;8.778;2023-07-02T12:45:12;16.7;;;10.7;;
51491;SDS011;37569;50.548;8.778;2023-07-02T12:50:12;13.7;;;10.4;;
51491;SDS011;37569;50.548;8.778;2023-07-02T12:55:13;13.7;;;10.1;;
51491;SDS011;37569;50.548;8.778;2023-07-02T13:00:15;15.3;;;10.9;;
51491;SDS011;37569;50.548;8.778;2023-07-02T13:05:16;15.6;;;10.3;;
51491;SDS011;37569;50.548;8.778;2023-07-02T13:10:16;14.5;;;10.4;;
51491;SDS011;37569;50.548;8.778;2023-07-02T13:15:18;17.4;;;10.1;;
51491;SDS011;37569;50.548;8.778;2023-07-02T13:20:19;15.6;;;10.3;;
51491;SDS011;37569;50.548;8.778;2023-07-02T13:25:20;14.7;;;10.6;;
51491;SDS011;37569;50.548;8.778;2023-07-02T13:30:21;14.9;;;10.2;;
51491;SDS011;37569;50.548;8.778;2023-07-02T13:35:22;17.2;;;10.3;;
51491;SDS011;37569;50.548;8.778;2023-07-02T13:40:23;16.4;;;10.7;;
51491;SDS011;37569;50.548;8.778;2023-07-02T13:45:24;14.7;;;10.3;;
51491;SDS011;37569;50.548;8.778;2023-07-02T13:50:25;15.4;;;10.4;;
51491;SDS011;37569;50.548;8.778;2023-07-02T13:55:26;14.6;;;10.4;;
51491;SDS011;37569;50.548;8.778;2023-07-02T14:00:28;14.1;;;10.5;;
51491;SDS011;37569;50.548;8.778;2023-07-02T14:05:28;14.2;;;10.4;;
51491;SDS011;37569;50.548;8.778;2023-07-02T14:10:29;14.7;;;10.4;;
51491;SDS011;37569;50.548;8.778;2023-07-02T14:15:30;15.1;;;9.9;;
51491;SDS011;37569;50.548;8.778;2023-07-02T14:20:31;13.3;;;10;;
51491;SDS011;37569;50.548;8.778;2023-07-02T14:25:32;13.7;;;9.7;;
51491;SDS011;37569;50.548;8.778;2023-07-02T14:30:34;14.7;;;9.9;;
51491;SDS011;37569;50.548;8.778;2023-07-02T14:35:35;13;;;10;;
51491;SDS011;37569;50.548;8.778;2023-07-02T14:40:36;17;;;10.5;;
51491;SDS011;37569;50.548;8.778;2023-07-02T14:45:41;15.3;;;9.8;;
51491;SDS011;37569;50.548;8.778;2023-07-02T14:50:41;17.2;;;10.4;;
51491;SDS011;37569;50.548;8.778;2023-07-02T14:55:39;16.3;;;10.3;;
51491;SDS011;37569;50.548;8.778;2023-07-02T15:00:43;17.8;;;10.7;;
51491;SDS011;37569;50.548;8.778;2023-07-02T15:05:41;15.6;;;10.4;;
51491;SDS011;37569;50.548;8.778;2023-07-02T15:10:42;14.5;;;11;;
51491;SDS011;37569;50.548;8.778;2023-07-02T15:15:43;16.7;;;10.9;;
51491;SDS011;37569;50.548;8.778;2023-07-02T15:20:44;14.4;;;10.5;;
51491;SDS011;37569;50.548;8.778;2023-07-02T15:25:49;17.7;;;11.6;;
51491;SDS011;37569;50.548;8.778;2023-07-02T15:30:46;16.1;;;11.3;;
51491;SDS011;37569;50.548;8.778;2023-07-02T15:35:47;15.4;;;10.8;;
51491;SDS011;37569;50.548;8.778;2023-07-02T15:40:48;15.1;;;11.2;;
51491;SDS011;37569;50.548;8.778;2023-07-02T15:45:51;18.7;;;12.1;;
51491;SDS011;37569;50.548;8.778;2023-07-02T15:50:50;17.2;;;11.3;;
51491;SDS011;37569;50.548;8.778;2023-07-02T15:55:54;16;;;11.1;;
51491;SDS011;37569;50.548;8.778;2023-07-02T16:00:52;15.1;;;11;;
51491;SDS011;37569;50.548;8.778;2023-07-02T16:05:55;16.7;;;11.5;;
51491;SDS011;37569;50.548;8.778;2023-07-02T16:10:54;16.6;;;11.1;;
51491;SDS011;37569;50.548;8.778;2023-07-02T16:15:55;17.4;;;11.8;;
51491;SDS011;37569;50.548;8.778;2023-07-02T16:20:57;18.9;;;11.8;;
51491;SDS011;37569;50.548;8.778;2023-07-02T16:25:58;16;;;11.6;;
51491;SDS011;37569;50.548;8.778;2023-07-02T16:30:58;17.4;;;11.4;;
51491;SDS011;37569;50.548;8.778;2023-07-02T16:36:02;19;;;11.6;;
51491;SDS011;37569;50.548;8.778;2023-07-02T16:41:00;15.5;;;11.2;;
51491;SDS011;37569;50.548;8.778;2023-07-02T16:46:01;17.4;;;11.9;;
51491;SDS011;37569;50.548;8.778;2023-07-02T16:51:03;19;;;11.5;;
51491;SDS011;37569;50.548;8.778;2023-07-02T16:56:04;16.4;;;11.4;;
51491;SDS011;37569;50.548;8.778;2023-07-02T17:01:05;17.3;;;11.5;;
51491;SDS011;37569;50.548;8.778;2023-07-02T17:06:06;17.3;;;11.1;;
51491;SDS011;37569;50.548;8.778;2023-07-02T17:11:07;18.3;;;11.1;;
51491;SDS011;37569;50.548;8.778;2023-07-02T17:16:07;16.8;;;11;;
51491;SDS011;37569;50.548;8.778;2023-07-02T17:21:08;16.8;;;11.1;;
51491;SDS011;37569;50.548;8.778;2023-07-02T17:26:09;19.2;;;11.6;;
51491;SDS011;37569;50.548;8.778;2023-07-02T17:31:10;16.5;;;10.7;;
51491;SDS011;37569;50.548;8.778;2023-07-02T17:36:14;16.2;;;11.1;;
51491;SDS011;37569;50.548;8.778;2023-07-02T17:41:12;18.5;;;11.5;;
51491;SDS011;37569;50.548;8.778;2023-07-02T17:46:13;16.2;;;11;;
51491;SDS011;37569;50.548;8.778;2023-07-02T17:51:14;18.6;;;11.5;;
51491;SDS011;37569;50.548;8.778;2023-07-02T17:56:15;17.3;;;10.7;;
51491;SDS011;37569;50.548;8.778;2023-07-02T18:01:16;18.4;;;11.1;;
51491;SDS011;37569;50.548;8.778;2023-07-02T18:06:17;16;;;11;;
51491;SDS011;37569;50.548;8.778;2023-07-02T18:11:18;17.9;;;11.5;;
51491;SDS011;37569;50.548;8.778;2023-07-02T18:16:19;17.1;;;10.7;;
51491;SDS011;37569;50.548;8.778;2023-07-02T18:21:20;17.1;;;11.2;;
51491;SDS011;37569;50.548;8.778;2023-07-02T18:26:21;16.2;;;10.7;;
51491;SDS011;37569;50.548;8.778;2023-07-02T18:31:22;16.7;;;11;;
51491;SDS011;37569;50.548;8.778;2023-07-02T18:36:23;18.3;;;11.3;;
51491;SDS011;37569;50.548;8.778;2023-07-02T18:41:24;17.8;;;11.2;;
51491;SDS011;37569;50.548;8.778;2023-07-02T18:46:25;16.6;;;11.7;;
51491;SDS011;37569;50.548;8.778;2023-07-02T18:51:25;19;;;11.2;;
51491;SDS011;37569;50.548;8.778;2023-07-02T18:56:26;16.6;;;10.9;;
51491;SDS011;37569;50.548;8.778;2023-07-02T19:01:27;18;;;11.5;;
51491;SDS011;37569;50.548;8.778;2023-07-02T19:06:28;17.7;;;11.4;;
51491;SDS011;37569;50.548;8.778;2023-07-02T19:11:29;19.7;;;11.6;;
51491;SDS011;37569;50.548;8.778;2023-07-02T19:16:30;19;;;11.5;;
51491;SDS011;37569;50.548;8.778;2023-07-02T19:21:31;18.2;;;11.9;;
51491;SDS011;37569;50.548;8.778;2023-07-02T19:26:32;21.6;;;11.6;;
51491;SDS011;37569;50.548;8.778;2023-07-02T19:31:33;18.5;;;11.9;;
51491;SDS011;37569;50.548;8.778;2023-07-02T19:36:33;21.8;;;13.8;;
51491;SDS011;37569;50.548;8.778;2023-07-02T19:41:34;19.5;;;12.6;;
51491;SDS011;37569;50.548;8.778;2023-07-02T19:46:35;18.8;;;11.5;;
51491;SDS011;37569;50.548;8.778;2023-07-02T19:51:36;18.7;;;12.4;;
51491;SDS011;37569;50.548;8.778;2023-07-02T19:56:37;18.8;;;12.3;;
51491;SDS011;37569;50.548;8.778;2023-07-02T20:01:38;17.7;;;11.1;;
51491;SDS011;37569;50.548;8.778;2023-07-02T20:06:39;19;;;12;;
51491;SDS011;37569;50.548;8.778;2023-07-02T20:11:40;20;;;12;;
51491;SDS011;37569;50.548;8.778;2023-07-02T20:16:40;19.1;;;11.5;;
51491;SDS011;37569;50.548;8.778;2023-07-02T20:21:41;18.7;;;11.9;;
51491;SDS011;37569;50.548;8.778;2023-07-02T20:26:42;20.3;;;11.7;;
51491;SDS011;37569;50.548;8.778;2023-07-02T20:31:43;19.3;;;11.3;;
51491;SDS011;37569;50.548;8.778;2023-07-02T20:36:44;18.3;;;12.4;;
51491;SDS011;37569;50.548;8.778;2023-07-02T20:41:45;18.8;;;12;;
51491;SDS011;37569;50.548;8.778;2023-07-02T20:46:45;21.5;;;12.9;;
51491;SDS011;37569;50.548;8.778;2023-07-02T20:51:46;18.1;;;11.6;;
51491;SDS011;37569;50.548;8.778;2023-07-02T20:56:47;18;;;11.8;;
51491;SDS011;37569;50.548;8.778;2023-07-02T21:01:48;19.8;;;11.2;;
51491;SDS011;37569;50.548;8.778;2023-07-02T21:06:48;20.4;;;11.7;;
51491;SDS011;37569;50.548;8.778;2023-07-02T21:11:49;19;;;11.9;;
51491;SDS011;37569;50.548;8.778;2023-07-02T21:16:50;19.8;;;11.5;;
51491;SDS011;37569;50.548;8.778;2023-07-02T21:21:51;18.3;;;11.2;;
51491;SDS011;37569;50.548;8.778;2023-07-02T21:26:52;17.8;;;11.2;;
51491;SDS011;37569;50.548;8.778;2023-07-02T21:31:52;18.2;;;11.2;;
51491;SDS011;37569;50.548;8.778;2023-07-02T21:36:53;18.9;;;11;;
51491;SDS011;37569;50.548;8.778;2023-07-02T21:41:54;19.4;;;11.3;;
51491;SDS011;37569;50.548;8.778;2023-07-02T21:46:55;19.9;;;11.4;;
51491;SDS011;37569;50.548;8.778;2023-07-02T21:51:56;19.5;;;11;;
51491;SDS011;37569;50.548;8.778;2023-07-02T21:56:56;18.6;;;11.5;;
51491;SDS011;37569;50.548;8.778;2023-07-02T22:01:57;18.3;;;11.3;;
51491;SDS011;37569;50.548;8.778;2023-07-02T22:06:58;17.4;;;11.1;;
51491;SDS011;37569;50.548;8.778;2023-07-02T22:11:59;19.5;;;11.5;;
51491;SDS011;37569;50.548;8.778;2023-07-02T22:16:59;19.9;;;10.7;;
51491;SDS011;37569;50.548;8.778;2023-07-02T22:22:00;18.4;;;10.8;;
51491;SDS011;37569;50.548;8.778;2023-07-02T22:27:01;18.5;;;10.8;;
51491;SDS011;37569;50.548;8.778;2023-07-02T22:32:02;19.9;;;10.2;;
51491;SDS011;37569;50.548;8.778;2023-07-02T22:37:02;19.1;;;10.7;;
51491;SDS011;37569;50.548;8.778;2023-07-02T22:42:03;17.8;;;10.7;;
51491;SDS011;37569;50.548;8.778;2023-07-02T22:47:04;19.9;;;10.4;;
51491;SDS011;37569;50.548;8.778;2023-07-02T22:52:05;17.7;;;10.3;;
51491;SDS011;37569;50.548;8.778;2023-07-02T22:57:05;17.3;;;9.8;;
51491;SDS011;37569;50.548;8.778;2023-07-02T23:02:06;18.1;;;9.6;;
51491;SDS011;37569;50.548;8.778;2023-07-02T23:07:07;21.2;;;10.2;;
51491;SDS011;37569;50.548;8.778;2023-07-02T23:12:08;18.1;;;10.1;;
51491;SDS011;37569;50.548;8.778;2023-07-02T23:17:08;20.7;;;9.8;;
51491;SDS011;37569;50.548;8.778;2023-07-02T23:22:09;19;;;9.9;;
51491;SDS011;37569;50.548;8.778;2023-07-02T23:27:10;18.9;;;9.7;;
51491;SDS011;37569;50.548;8.778;2023-07-02T23:32:10;22.9;;;10.1;;
51491;SDS011;37569;50.548;8.778;2023-07-02T23:37:11;18.4;;;9.8;;
51491;SDS011;37569;50.548;8.778;2023-07-02T23:42:12;18.4;;;9.8;;
51491;SDS011;37569;50.548;8.778;2023-07-02T23:47:13;19.8;;;9.5;;
51491;SDS011;37569;50.548;8.778;2023-07-02T23:52:13;18;;;9.3;;
51491;SDS011;37569;50.548;8.778;2023-07-02T23:57:14;15.1;;;9;;
